Fukuoka, Japan
Current Conditions -  °F | °C
As of 11:00 AM on Saturday 20 Dec 2014 (Local Time) from RJFF Reporting Station
Light Rain Light Rain  
Wind Chill: 45°   Ceiling: 3000
Heat Index: 48°   Visibility: 6mi
Dew Point: 45°   Wind: 7mph
Humidity: 87%   Direction: 170°S
Pressure: 30"   Gusts: NA
Location:  33.59°N, 130.41°E
Report Text: RJFF 200200Z 17006KT 9999 -RA FEW002 BKN030 BKN050 09/07 Q1016 RMK 1ST002 5CU030 6SC050 A3002
Loading
Personal Weather Stations






























Interactive Weather Map New forecast layout! Learn more

10-Day Weather Forecast

Advertisements
Track Severe Weather on mobile